Flight Track Log - Related Links

Times and Time Zones

All times are in EDT time to prevent confusion due to time zone crossing. See the N457DM flight status page for this flight to view local times or setup timezone preferences in your user account.

Time Position Orientation Groundspeed Altitude Reporting Facility
EDT Latitude Longitude Course Direction KTS MPH feet Rate Location/Type
Tue 12:47:00 PM 48.3249 -106.8858 303° West  Level FlightAware Approximate
Tue 12:48:00 PM 48.3455 -106.9339 303° West  Level FlightAware Approximate
Tue 12:49:00 PM 48.3661 -106.9819 303° West  Level FlightAware Approximate
Tue 12:50:00 PM 48.3877 -107.0288 305° West  Level FlightAware Approximate
Tue 12:51:00 PM 48.4094 -107.0758 305° West  Level FlightAware Approximate
Tue 12:52:00 PM 48.4311 -107.1228 305° West  Level FlightAware Approximate
Tue 12:53:00 PM 48.4528 -107.1698 305° West  Level FlightAware Approximate
Tue 12:54:00 PM 48.4734 -107.2179 300° West  Level FlightAware Approximate
Tue 12:55:00 PM 48.4921 -107.2677 300° West  Level FlightAware Approximate
Tue 12:56:00 PM 48.5108 -107.3176 300° West  Level FlightAware Approximate
Tue 12:57:00 PM 48.5324 -107.3647 307° West  Level FlightAware Approximate
Tue 12:58:00 PM 48.5553 -107.4104 307° West  Level FlightAware Approximate
Tue 12:59:00 PM 48.5781 -107.4563 307° West  Level FlightAware Approximate
Tue 01:00:00 PM 48.6010 -107.5021 307° West  Level FlightAware Approximate
Tue 01:01:00 PM 48.6232 -107.5487 303° West  Level FlightAware Approximate
Tue 01:02:00 PM 48.6437 -107.5970 303° West  Level FlightAware Approximate
Tue 01:03:00 PM 48.6642 -107.6454 303° West  Level FlightAware Approximate
Tue 01:04:00 PM 48.6847 -107.6938 303° West  Level FlightAware Approximate
Tue 01:05:00 PM 48.7052 -107.7423 303° West  Level FlightAware Approximate
Tue 01:06:00 PM 48.7257 -107.7908 303° West  Level FlightAware Approximate
Tue 01:07:00 PM 48.7461 -107.8393 303° West  Level FlightAware Approximate
Tue 01:08:00 PM 48.7665 -107.8879 303° West  Level FlightAware Approximate
Tue 01:09:00 PM 48.7869 -107.9365 302° West  Level FlightAware Approximate
Tue 01:10:00 PM 48.8073 -107.9852 302° West  Level FlightAware Approximate
Tue 01:11:00 PM 48.8276 -108.0339 302° West  Level FlightAware Approximate
Tue 01:12:00 PM 48.8479 -108.0826 302° West  Level FlightAware Approximate
Tue 01:13:00 PM 48.8683 -108.1314 302° West  Level FlightAware Approximate
Tue 01:14:00 PM 48.8886 -108.1803 302° West  Level FlightAware Approximate
Tue 01:15:00 PM 48.9088 -108.2291 302° West  Level FlightAware Approximate
Tue 01:16:00 PM 48.9291 -108.2780 302° West  Level FlightAware Approximate
Tue 01:17:00 PM 48.9493 -108.3270 302° West  Level FlightAware Approximate
Tue 01:18:00 PM 48.9695 -108.3759 302° West  Level FlightAware Approximate
Tue 01:19:00 PM 48.9897 -108.4250 302° West  Level FlightAware Approximate
Tue 01:20:00 PM 49.0113 -108.4725 307° West  Level FlightAware Approximate
Tue 01:21:00 PM 49.0325 -108.5206 303° West  Level FlightAware Approximate
Tue 01:22:00 PM 49.0531 -108.5693 303° West  Level FlightAware Approximate
Tue 01:23:00 PM 49.0737 -108.6180 303° West  Level FlightAware Approximate
Tue 01:24:00 PM 49.0942 -108.6667 303° West  Level FlightAware Approximate
Tue 01:25:00 PM 49.1148 -108.7155 303° West  Level FlightAware Approximate
Tue 01:26:00 PM 49.1353 -108.7643 303° West  Level FlightAware Approximate
Tue 01:27:00 PM 49.1558 -108.8132 303° West  Level FlightAware Approximate
Tue 01:28:00 PM 49.1763 -108.8621 303° West  Level FlightAware Approximate
Tue 01:29:00 PM 49.1968 -108.9111 303° West  Level FlightAware Approximate
Tue 01:30:00 PM 49.2173 -108.9601 303° West  Level FlightAware Approximate
Tue 01:31:00 PM 49.2377 -109.0091 303° West  Level FlightAware Approximate
Tue 01:32:00 PM 49.2582 -109.0585 303° West  Level FlightAware Approximate
Tue 01:33:00 PM 49.2787 -109.1079 302° West  Level FlightAware Approximate
Tue 01:34:00 PM 49.2992 -109.1573 302° West  Level FlightAware Approximate
Tue 01:35:00 PM 49.3197 -109.2068 302° West  Level FlightAware Approximate
Tue 01:36:00 PM 49.3401 -109.2563 302° West  Level FlightAware Approximate
Tue 01:37:00 PM 49.3605 -109.3059 302° West  Level FlightAware Approximate
Tue 01:38:00 PM 49.3809 -109.3555 302° West  Level FlightAware Approximate
Tue 01:39:00 PM 49.4013 -109.4051 302° West  Level FlightAware Approximate
Tue 01:40:00 PM 49.4217 -109.4548 302° West  Level FlightAware Approximate
Tue 01:41:00 PM 49.4419 -109.5047 302° West  Level FlightAware Approximate
Tue 01:42:00 PM 49.4619 -109.5547 302° West  Level FlightAware Approximate
Tue 01:43:00 PM 49.4819 -109.6048 302° West  Level FlightAware Approximate
Tue 01:44:00 PM 49.5019 -109.6549 302° West  Level FlightAware Approximate
Tue 01:45:00 PM 49.5218 -109.7051 302° West  Level FlightAware Approximate
Tue 01:45:58 PM 49.1333 -108.8333 302° West 170 196 13,300  Level Winnipeg Center
Tue 01:46:00 PM 49.5345 -109.7610 302° West  Level FlightAware Approximate
Tue 01:46:58 PM 49.1667 -108.8500 342° North 160 184 13,900  Level Edmonton Center
Tue 01:47:00 PM 49.5545 -109.8108 302° West  Level FlightAware Approximate
Tue 01:47:58 PM 49.2000 -108.9500 297° West 160 184 14,200  Level Winnipeg Center
Tue 01:48:00 PM 49.5744 -109.8606 302° West  Level FlightAware Approximate
Tue 01:48:58 PM 49.2000 -109.0000 270° West 150 173 14,600  Level Winnipeg Center
Tue 01:49:00 PM 49.5944 -109.9105 302° West  Level FlightAware Approximate
Tue 01:49:58 PM 49.2333 -109.0667 307° West 150 173 15,100  Level Winnipeg Center
Tue 01:50:00 PM 49.6143 -109.9604 302° West  Level FlightAware Approximate
Tue 01:50:58 PM 49.2500 -109.1167 297° West 150 173 15,700  Level Winnipeg Center
Tue 01:51:00 PM 49.6342 -110.0103 302° West  Level FlightAware Approximate
Tue 01:51:58 PM 49.2667 -109.1500 307° West 160 184 15,900  Level Winnipeg Center
Tue 01:52:58 PM 49.3000 -109.2333 302° West 160 184 16,000 50 Climbing Winnipeg Center
Tue 01:53:58 PM 49.3167 -109.3000 291° West 160 184 16,000 -50 Level Winnipeg Center
Tue 01:54:58 PM 49.3500 -109.3333 327° Northwest 160 184 15,900 -50 Descending Winnipeg Center
Tue 01:55:58 PM 49.3667 -109.4167 287° West 160 184 15,900 50 Level Winnipeg Center
Tue 01:56:58 PM 49.4000 -109.4500 327° Northwest 160 184 16,000  Climbing Winnipeg Center
Tue 01:57:58 PM 49.4167 -109.5333 287° West 170 196 15,900 -50 Descending Winnipeg Center
Tue 01:58:58 PM 49.4500 -109.5667 327° Northwest 160 184 15,900  Level Winnipeg Center
Tue 01:59:58 PM 49.4667 -109.6500 287° West 160 184 15,900 50 Level Winnipeg Center
Tue 02:00:58 PM 49.5000 -109.7000 316° Northwest 160 184 16,000 50 Climbing Winnipeg Center
Tue 02:01:58 PM 49.5167 -109.7667 291° West 160 184 16,000  Level Winnipeg Center
Tue 02:02:58 PM 49.5333 -109.8167 297° West 160 184 16,000 -50 Level Winnipeg Center
Tue 02:03:58 PM 49.5667 -109.8833 308° West 160 184 15,900 -50 Descending Winnipeg Center
Tue 02:04:58 PM 49.5667 -109.9333 270° West 160 184 15,900 50 Level Winnipeg Center
Tue 02:05:58 PM 49.6000 -110.0000 308° West 160 184 16,000  Climbing Winnipeg Center
Tue 02:06:58 PM 49.6167 -110.0500 297° West 160 184 15,900  Descending Winnipeg Center
Tue 02:07:58 PM 49.6333 -110.1167 291° West 160 184 16,000  Climbing Winnipeg Center
Tue 02:08:58 PM 49.6667 -110.2000 302° West 160 184 15,900 -50 Descending Winnipeg Center
Tue 02:09:58 PM 49.6667 -110.2500 270° West 160 184 15,900 50 Level Winnipeg Center
Tue 02:10:58 PM 49.7000 -110.3167 308° West 160 184 16,000 50 Climbing Winnipeg Center
Tue 02:11:58 PM 49.7167 -110.3667 297° West 160 184 16,000  Level Winnipeg Center
Tue 02:12:58 PM 49.7333 -110.4167 297° West 160 184 16,000  Level Winnipeg Center
Tue 02:13:58 PM 49.7667 -110.4833 308° West 160 184 16,000  Level Winnipeg Center
Tue 02:14:58 PM 49.7667 -110.5167 270° West 160 184 16,000  Level Edmonton Center
Tue 02:15:58 PM 49.8000 -110.5833 308° West 160 184 16,000  Level Edmonton Center
Tue 02:16:58 PM 49.8167 -110.6333 297° West 160 184 16,000  Level Edmonton Center
Tue 02:17:58 PM 49.8167 -110.7167 270° West 160 184 16,000  Level Edmonton Center
Tue 02:18:58 PM 49.8500 -110.7667 316° Northwest 160 184 16,000  Level Edmonton Center
Tue 02:19:58 PM 49.8667 -110.8167 297° West 160 184 16,000  Level Edmonton Center
Tue 02:20:58 PM 49.9000 -110.9000 302° West 160 184 16,000  Level Edmonton Center
Tue 02:21:58 PM 49.9167 -110.9667 291° West 160 184 16,000  Level Edmonton Center
Tue 02:22:58 PM 49.9333 -111.0167 297° West 160 184 16,000  Level Edmonton Center
Tue 02:23:58 PM 49.9500 -111.0667 297° West 160 184 16,000  Level Edmonton Center
Tue 02:24:58 PM 49.9833 -111.1333 308° West 160 184 16,000  Level Edmonton Center
Tue 02:25:58 PM 50.0000 -111.2000 291° West 160 184 16,000  Level Edmonton Center
Tue 02:26:58 PM 50.0167 -111.2667 291° West 160 184 16,000  Level Edmonton Center
Tue 02:27:58 PM 50.0333 -111.3167 297° West 160 184 16,000  Level Edmonton Center
Tue 02:28:58 PM 50.0500 -111.4000 287° West 160 184 16,000  Level Edmonton Center
Tue 02:29:58 PM 50.0667 -111.4500 297° West 160 184 16,000 -50 Level Edmonton Center
Tue 02:30:58 PM 50.0833 -111.5000 297° West 160 184 15,900  Descending Edmonton Center
Tue 02:31:58 PM 50.1000 -111.5833 287° West 150 173 16,000 50 Climbing Edmonton Center
Tue 02:32:58 PM 50.0833 -111.6333 243° Southwest 150 173 16,000  Level Edmonton Center
Tue 02:33:58 PM 50.0833 -111.7167 270° West 150 173 16,000  Level Edmonton Center
Tue 02:34:58 PM 50.0833 -111.7667 270° West 150 173 16,000  Level Edmonton Center
Tue 02:35:58 PM 50.1000 -111.8500 287° West 150 173 16,000  Level Edmonton Center
Tue 02:36:58 PM 50.0833 -111.9000 243° Southwest 150 173 16,000 -150 Level Edmonton Center
Tue 02:37:58 PM 50.0833 -111.9833 270° West 150 173 15,700 -400 Descending Edmonton Center
Tue 02:38:58 PM 50.0833 -112.0333 270° West 160 184 15,200 -550 Descending Edmonton Center
Tue 02:39:58 PM 50.1000 -112.1167 287° West 170 196 14,600 -600 Descending Edmonton Center
Tue 02:40:58 PM 50.0833 -112.2000 253° West 170 196 14,000 -600 Descending Edmonton Center
Tue 02:41:58 PM 50.0833 -112.2667 270° West 170 196 13,400 -600 Descending Edmonton Center
Tue 02:42:58 PM 50.1000 -112.3500 287° West 170 196 12,800 -600 Descending Edmonton Center
Tue 02:43:58 PM 50.0833 -112.4000 243° Southwest 170 196 12,200 -700 Descending Edmonton Center
Tue 02:44:58 PM 50.1167 -112.4833 302° West 180 207 11,400 -650 Descending Edmonton Center
Tue 02:45:58 PM 50.1500 -112.5167 327° Northwest 180 207 10,900 -550 Descending Edmonton Center
Tue 02:46:58 PM 50.2000 -112.5833 320° Northwest 180 207 10,300 -600 Descending Edmonton Center
Tue 02:47:58 PM 50.2333 -112.6333 316° Northwest 180 207 9,700 -600 Descending Edmonton Center
Tue 02:48:58 PM 50.2500 -112.7000 291° West 190 219 9,100 -350 Descending Edmonton Center
Tue 02:49:58 PM 50.3000 -112.7667 320° Northwest 180 207 9,000 -100 Descending Edmonton Center
Tue 02:50:58 PM 50.3333 -112.8167 316° Northwest 170 196 8,900 -50 Descending Edmonton Center
Tue 02:51:58 PM 50.3667 -112.8833 308° West 170 196 8,900 50 Level Edmonton Center
Tue 02:52:58 PM 50.3833 -112.9333 298° West 170 196 9,000  Climbing Edmonton Center
Tue 02:53:58 PM 50.4167 -113.0000 308° West 170 196 8,900  Descending Edmonton Center
Tue 02:54:58 PM 50.4500 -113.0500 316° Northwest 170 196 9,000 50 Climbing Edmonton Center
Tue 02:55:58 PM 50.5000 -113.0833 337° Northwest 170 196 9,000  Level Edmonton Center
Tue 02:56:58 PM 50.5333 -113.1500 308° West 170 196 9,000  Level Edmonton Center
Tue 02:57:59 PM 50.5500 -113.2000 298° West 170 196 9,000  Level Edmonton Center
Tue 02:58:58 PM 50.5833 -113.2667 308° West 170 196 9,000 -50 Level Edmonton Center
Tue 02:59:58 PM 50.6167 -113.3167 316° Northwest 170 196 8,900 -50 Descending Edmonton Center
Tue 03:00:58 PM 50.6667 -113.3833 320° Northwest 170 196 8,900  Level Edmonton Center
Tue 03:01:58 PM 50.7000 -113.4167 328° Northwest 170 196 8,900 -150 Level Edmonton Center
Tue 03:02:58 PM 50.7167 -113.4833 292° West 170 196 8,600 -450 Descending Edmonton Center
Tue 03:03:58 PM 50.7667 -113.5333 328° Northwest 190 219 8,000 -600 Descending Edmonton Center
Tue 03:04:58 PM 50.8167 -113.5833 328° Northwest 180 207 7,400 -550 Descending Edmonton Center
Tue 03:05:58 PM 50.8500 -113.6167 328° Northwest 170 196 6,900 -250 Descending Edmonton Center
Tue 03:06:58 PM 50.9000 -113.6500 337° Northwest 160 184 6,900 -200 Level Edmonton Center
Tue 03:07:58 PM 50.9333 -113.6833 328° Northwest 170 196 6,500 -400 Descending Edmonton Center
Tue 03:08:58 PM 50.9667 -113.7333 317° Northwest 170 196 6,100 -300 Descending Edmonton Center
Tue 03:09:58 PM 51.0000 -113.7667 328° Northwest 160 184 5,900 -200 Descending Edmonton Center

Login

Don't have an account? Register now (free) for customized features, flight alerts, and more!